Time;durP1;ratioP1;P1;durP2;ratioP2;P2;SDS_P1;SDS_P2;PMS_P1;PMS_P2;Temp;Humidity;BMP_temperature;BMP_pressure;BME280_temperature;BME280_humidity;BME280_pressure;Samples;Min_cycle;Max_cycle;Signal;HPM_P1;HPM_P2
2021/12/13 04:33:14;;;;;;;20.23;12.47;;;;;;;11.23;61.45;99895.78;7091192;23;20315;-78
2021/12/13 04:36:39;;;;;;;21.57;12.63;;;;;;;10.89;62.18;99907.03;6909835;28;20220;-78
2021/12/13 04:40:04;;;;;;;22.27;13.43;;;;;;;10.93;62.25;99913.75;6921963;28;20257;-78
2021/12/13 04:43:25;;;;;;;21.70;14.40;;;;;;;10.91;62.21;99912.25;6922651;28;20222;-78
2021/12/13 04:46:51;;;;;;;20.73;14.10;;;;;;;11.23;62.15;99906.59;6922139;28;20204;-80
2021/12/13 04:50:21;;;;;;;23.23;14.30;;;;;;;11.00;62.18;99930.06;6922449;28;20195;-79
2021/12/13 04:53:45;;;;;;;21.60;15.27;;;;;;;10.88;62.90;99918.00;6922055;28;20257;-78
2021/12/13 04:57:07;;;;;;;20.57;15.53;;;;;;;11.27;61.83;99914.13;6921745;28;20215;-77
2021/12/13 05:00:31;;;;;;;19.57;14.60;;;;;;;11.32;61.52;99909.03;6922349;28;20233;-78
2021/12/13 05:03:55;;;;;;;27.87;14.60;;;;;;;11.13;62.01;99916.78;6922171;28;20199;-78
2021/12/13 05:07:19;;;;;;;21.03;15.67;;;;;;;10.81;63.03;99919.75;6921746;28;20733;-77
2021/12/13 05:10:42;;;;;;;24.00;17.00;;;;;;;10.94;62.93;99911.91;6921446;28;20230;-78
2021/12/13 05:14:05;;;;;;;24.77;17.40;;;;;;;10.87;63.21;99921.72;6921104;28;20281;-78
2021/12/13 05:17:30;;;;;;;30.73;17.97;;;;;;;10.79;63.48;99925.31;6920753;28;20263;-77
2021/12/13 05:20:59;;;;;;;25.53;17.03;;;;;;;10.98;63.23;99926.72;6920592;28;20230;-77
2021/12/13 05:24:27;;;;;;;27.47;17.73;;;;;;;11.30;62.45;99926.44;6920852;28;20187;-78
2021/12/13 05:27:58;;;;;;;35.13;20.43;;;;;;;10.81;62.41;99914.38;6921510;28;20197;-78
2021/12/13 05:31:24;;;;;;;33.60;19.53;;;;;;;11.18;62.30;99917.09;6921117;28;20241;-77
2021/12/13 05:34:49;;;;;;;26.37;17.17;;;;;;;11.18;62.04;99927.88;6919724;28;20225;-78
2021/12/13 05:38:24;;;;;;;24.30;16.23;;;;;;;11.22;61.64;99923.81;6920725;28;20210;-78
2021/12/13 05:41:53;;;;;;;30.10;17.33;;;;;;;11.02;62.13;99931.56;6920361;28;20240;-79
2021/12/13 05:45:17;;;;;;;23.10;16.50;;;;;;;10.73;63.29;99922.50;6920331;28;20194;-77
2021/12/13 05:48:45;;;;;;;29.80;17.13;;;;;;;10.12;64.43;99935.97;6920170;28;20218;-77
2021/12/13 05:52:11;;;;;;;28.50;17.83;;;;;;;10.60;64.83;99949.22;6919841;28;20229;-78
2021/12/13 05:55:45;;;;;;;25.63;16.17;;;;;;;10.79;63.93;99948.75;6920114;28;20225;-78
2021/12/13 05:59:16;;;;;;;23.77;15.03;;;;;;;10.82;63.71;99959.19;6920358;28;20221;-78
2021/12/13 06:02:55;;;;;;;25.13;16.20;;;;;;;11.05;63.33;99950.06;6920550;28;20218;-79
2021/12/13 06:06:22;;;;;;;20.23;14.70;;;;;;;11.14;63.27;99953.56;6920446;28;20623;-78
2021/12/13 06:09:48;;;;;;;18.97;13.13;;;;;;;11.37;62.34;99941.72;6920714;28;20201;-78
2021/12/13 06:13:12;;;;;;;20.20;12.53;;;;;;;11.25;62.31;99936.94;6921159;28;20241;-79
2021/12/13 06:16:40;;;;;;;17.20;11.93;;;;;;;11.41;61.86;99942.19;6920740;28;20198;-78
2021/12/13 06:20:07;;;;;;;17.63;12.17;;;;;;;11.33;61.61;99943.09;6894553;28;20195;-78
2021/12/13 06:23:30;;;;;;;17.57;11.57;;;;;;;11.21;62.23;99949.13;6921331;28;20243;-78
2021/12/13 06:27:04;;;;;;;16.00;11.53;;;;;;;11.21;62.20;99944.56;6920316;28;20209;-78
2021/12/13 06:30:27;;;;;;;19.90;12.73;;;;;;;10.85;62.88;99927.31;6919996;28;20646;-78
2021/12/13 06:33:53;;;;;;;20.93;12.20;;;;;;;11.05;62.65;99943.84;6919860;28;20286;-82
2021/12/13 06:37:15;;;;;;;18.80;13.17;;;;;;;10.97;63.33;99942.06;6919060;28;20231;-80
2021/12/13 06:40:37;;;;;;;20.87;12.67;;;;;;;11.04;63.20;99939.47;6918759;28;20316;-78
2021/12/13 06:44:01;;;;;;;22.10;12.93;;;;;;;11.02;63.26;99942.34;6915460;28;20204;-81
2021/12/13 06:47:24;;;;;;;18.83;13.13;;;;;;;10.86;63.29;99938.94;6922139;28;20578;-79
2021/12/13 06:50:47;;;;;;;18.77;13.27;;;;;;;10.25;65.05;99942.50;6921623;28;20234;-80
2021/12/13 06:54:12;;;;;;;19.30;13.53;;;;;;;10.54;65.30;99958.00;6903975;28;20230;-78
2021/12/13 06:57:36;;;;;;;22.03;12.77;;;;;;;10.62;64.53;99931.03;6915862;28;20206;-79
2021/12/13 07:01:05;;;;;;;19.07;13.20;;;;;;;10.88;64.52;99963.88;6923927;28;20227;-80
2021/12/13 07:04:27;;;;;;;21.93;13.13;;;;;;;11.01;63.91;99975.75;6910395;28;20577;-79
2021/12/13 07:07:54;;;;;;;19.17;12.87;;;;;;;11.25;62.78;99945.88;6926420;28;20210;-79
2021/12/13 07:11:17;;;;;;;20.80;13.57;;;;;;;11.38;62.48;99962.31;6926387;28;20218;-80
2021/12/13 07:14:40;;;;;;;21.03;13.87;;;;;;;11.45;62.53;99976.75;6925779;28;20293;-79
2021/12/13 07:18:06;;;;;;;21.10;13.80;;;;;;;11.34;62.35;99979.88;6927266;28;20673;-78
2021/12/13 07:21:31;;;;;;;20.23;13.80;;;;;;;11.21;63.11;99976.94;6926315;28;20226;-79
2021/12/13 07:25:04;;;;;;;19.17;13.07;;;;;;;11.44;62.23;99983.19;6925108;28;20202;-79
2021/12/13 07:28:32;;;;;;;20.23;13.20;;;;;;;11.11;62.56;99951.22;6925958;28;20583;-79
2021/12/13 07:32:05;;;;;;;18.83;11.67;;;;;;;11.08;63.20;99981.25;6925511;28;20249;-79
2021/12/13 07:35:31;;;;;;;21.07;12.87;;;;;;;10.86;63.69;99982.94;6902237;28;20218;-79
2021/12/13 07:38:56;;;;;;;18.63;12.67;;;;;;;11.00;63.90;99981.34;6919064;28;21328;-79
2021/12/13 07:42:20;;;;;;;17.53;12.53;;;;;;;10.94;64.32;99976.66;6913486;28;20217;-79
2021/12/13 07:45:49;;;;;;;22.00;12.53;;;;;;;11.03;63.64;99991.78;6910714;28;20715;-79
2021/12/13 07:49:11;;;;;;;18.63;11.80;;;;;;;11.19;63.06;99970.06;6911105;28;20196;-79
2021/12/13 07:52:35;;;;;;;19.53;12.87;;;;;;;10.93;63.12;99931.81;6914270;28;20245;-80
2021/12/13 07:55:56;;;;;;;18.00;13.10;;;;;;;11.08;63.96;99992.06;6920635;28;20218;-79
2021/12/13 07:59:25;;;;;;;19.27;13.53;;;;;;;11.27;63.41;99983.50;6904915;28;20206;-79
2021/12/13 08:02:54;;;;;;;19.07;12.83;;;;;;;11.41;62.74;99986.25;6907827;28;20641;-79
2021/12/13 08:06:16;;;;;;;15.73;11.33;;;;;;;11.61;62.20;99984.75;6919027;28;20207;-78
2021/12/13 08:09:43;;;;;;;17.43;11.63;;;;;;;11.66;61.97;99997.69;6924903;28;20208;-79
2021/12/13 08:13:08;;;;;;;24.17;14.20;;;;;;;11.02;62.54;99955.00;6925236;28;20240;-79
2021/12/13 08:16:33;;;;;;;21.07;13.80;;;;;;;11.21;63.37;99989.63;6923886;28;20680;-79
2021/12/13 08:19:57;;;;;;;17.87;12.57;;;;;;;11.23;63.68;99990.28;6910059;28;20204;-79
2021/12/13 08:23:21;;;;;;;20.17;12.77;;;;;;;11.62;63.08;99985.59;6924505;28;20231;-79
2021/12/13 08:26:44;;;;;;;18.27;12.83;;;;;;;11.56;63.17;100000.63;6923742;28;20213;-79
2021/12/13 08:30:12;;;;;;;21.00;12.90;;;;;;;11.87;62.42;99990.56;6924223;28;20221;-79
2021/12/13 08:33:39;;;;;;;21.13;12.87;;;;;;;11.74;62.29;99990.34;6924593;28;20229;-79
2021/12/13 08:37:05;;;;;;;21.20;14.83;;;;;;;11.69;62.80;99994.63;6923759;28;20601;-79
2021/12/13 08:40:30;;;;;;;18.60;12.90;;;;;;;11.64;62.92;99976.25;6922482;28;20249;-79
2021/12/13 08:43:54;;;;;;;20.07;12.90;;;;;;;11.79;62.60;100006.00;6918003;28;20215;-79
2021/12/13 08:47:18;;;;;;;14.27;9.13;;;;;;;12.01;60.91;99973.53;6923602;28;20721;-79
2021/12/13 08:50:47;;;;;;;8.33;7.20;;;;;;;11.72;62.16;99999.66;6925407;28;20236;-79
2021/12/13 08:54:12;;;;;;;11.47;8.70;;;;;;;11.63;62.71;100015.09;6924332;28;20229;-79
2021/12/13 08:57:41;;;;;;;10.83;9.00;;;;;;;12.01;61.72;100011.38;6924026;28;20206;-79
2021/12/13 09:01:06;;;;;;;10.60;8.20;;;;;;;12.15;62.07;99999.72;6924420;28;20254;-79
2021/12/13 09:04:30;;;;;;;10.33;7.47;;;;;;;12.22;61.48;100000.66;6924499;28;20216;-80
2021/12/13 09:07:56;;;;;;;14.23;10.57;;;;;;;11.96;62.34;100012.94;6911342;28;20213;-80
2021/12/13 09:11:27;;;;;;;12.57;9.30;;;;;;;12.07;62.24;100028.69;6910078;28;20219;-79
2021/12/13 09:14:53;;;;;;;12.20;8.83;;;;;;;11.98;62.32;100000.09;6929432;28;20241;-79
2021/12/13 09:18:19;;;;;;;11.30;7.90;;;;;;;12.35;61.40;100002.69;6939967;28;20210;-79
2021/12/13 09:21:51;;;;;;;11.67;9.40;;;;;;;12.64;61.64;100018.91;6938296;28;20242;-79
2021/12/13 09:25:18;;;;;;;18.63;11.23;;;;;;;12.87;61.00;100023.13;6939690;28;20205;-80
2021/12/13 09:28:48;;;;;;;13.70;9.80;;;;;;;12.85;60.82;100008.97;6925621;28;20207;-79
2021/12/13 09:32:12;;;;;;;10.90;9.37;;;;;;;12.94;60.42;100012.41;6921503;28;20241;-83
2021/12/13 09:35:45;;;;;;;11.70;8.67;;;;;;;13.10;60.12;100026.56;6920896;28;20230;-80
2021/12/13 09:39:11;;;;;;;9.77;8.10;;;;;;;13.12;60.30;100023.69;6921170;28;20664;-79
2021/12/13 09:42:44;;;;;;;10.67;8.90;;;;;;;13.26;59.45;100018.22;6921798;28;20277;-80
2021/12/13 09:46:06;;;;;;;12.37;9.17;;;;;;;13.13;60.01;100030.75;6902653;28;20207;-80
2021/12/13 09:49:31;;;;;;;12.90;9.33;;;;;;;13.09;59.65;100021.38;6894473;28;20208;-81
2021/12/13 09:52:58;;;;;;;11.27;9.00;;;;;;;13.21;60.50;100022.53;6895001;28;20235;-80
2021/12/13 09:56:22;;;;;;;10.30;7.40;;;;;;;13.36;59.73;100016.03;6907068;28;20219;-80
2021/12/13 09:59:47;;;;;;;10.47;7.37;;;;;;;13.11;60.06;100016.59;6921459;28;20207;-80
2021/12/13 10:03:17;;;;;;;9.83;6.90;;;;;;;13.17;60.88;100011.22;6921660;28;20227;-80
2021/12/13 10:06:40;;;;;;;11.67;9.00;;;;;;;12.88;61.21;100005.91;6920850;28;20195;-79
2021/12/13 10:10:06;;;;;;;11.20;8.23;;;;;;;13.20;60.76;100001.88;6921660;28;20215;-79
2021/12/13 10:13:33;;;;;;;11.47;8.57;;;;;;;13.05;61.45;99993.00;6920782;28;20251;-79
2021/12/13 10:16:57;;;;;;;9.17;7.50;;;;;;;13.32;60.95;100005.75;6920698;28;20246;-79
2021/12/13 10:20:21;;;;;;;7.97;7.03;;;;;;;13.43;60.48;99988.97;6924431;28;20219;-79
2021/12/13 10:23:46;;;;;;;7.97;6.33;;;;;;;13.54;60.44;99991.16;6929857;28;20730;-79
2021/12/13 10:27:10;;;;;;;7.50;6.50;;;;;;;13.55;59.69;99969.31;6929874;28;20209;-79
2021/12/13 10:30:35;;;;;;;7.83;6.63;;;;;;;13.42;61.38;99977.31;6928524;28;20741;-81
2021/12/13 10:34:00;;;;;;;6.07;4.97;;;;;;;13.52;60.50;99980.53;6929449;28;20223;-79
2021/12/13 10:37:25;;;;;;;6.27;5.60;;;;;;;13.42;60.68;99969.19;6930563;28;20203;-80
2021/12/13 10:40:49;;;;;;;4.67;4.27;;;;;;;13.96;59.79;99969.38;6931739;28;20231;-79
2021/12/13 10:44:15;;;;;;;5.23;4.43;;;;;;;13.79;60.28;99978.84;6929767;28;20210;-80
2021/12/13 10:47:41;;;;;;;4.90;4.40;;;;;;;13.87;60.22;99968.72;6929580;28;20204;-79
2021/12/13 10:51:09;;;;;;;4.77;4.37;;;;;;;13.80;59.79;99967.00;6929412;28;20305;-79
2021/12/13 10:54:35;;;;;;;9.83;6.67;;;;;;;13.56;60.49;99960.13;6929494;28;20227;-80
2021/12/13 10:57:57;;;;;;;11.10;7.57;;;;;;;13.67;60.73;99977.72;6930817;28;20203;-80
2021/12/13 11:01:22;;;;;;;9.87;7.20;;;;;;;12.76;62.86;99937.03;6930897;28;20591;-80
2021/12/13 11:04:46;;;;;;;10.50;8.20;;;;;;;12.97;62.09;99957.91;6930217;28;20203;-80
2021/12/13 11:08:11;;;;;;;11.23;8.53;;;;;;;12.95;62.73;99968.06;6931841;28;20207;-81
2021/12/13 11:11:35;;;;;;;11.33;8.10;;;;;;;12.71;63.83;99960.28;6931564;28;20711;-81
2021/12/13 11:15:01;;;;;;;11.50;8.60;;;;;;;12.99;63.15;99963.97;6931188;28;20231;-81
2021/12/13 11:18:28;;;;;;;9.73;7.20;;;;;;;13.21;62.54;99946.72;6932454;28;20254;-79
2021/12/13 11:21:52;;;;;;;8.17;7.37;;;;;;;13.06;62.32;99929.69;6928624;28;20331;-82
2021/12/13 11:25:19;;;;;;;12.93;7.97;;;;;;;12.89;63.27;99915.53;6928522;28;20282;-80
2021/12/13 11:28:41;;;;;;;8.17;7.27;;;;;;;13.12;62.34;99937.03;6928204;28;20249;-81
2021/12/13 11:32:44;;;;;;;10.57;8.13;;;;;;;13.13;62.96;99934.13;6924291;28;20235;-79
2021/12/13 11:36:32;;;;;;;9.53;6.73;;;;;;;13.19;62.27;99946.91;6923697;28;20235;-80
2021/12/13 11:40:21;;;;;;;5.23;4.73;;;;;;;13.45;61.69;99940.88;6924538;28;20309;-80
2021/12/13 11:44:04;;;;;;;5.67;5.17;;;;;;;13.63;61.10;99943.94;6923312;28;20203;-78
2021/12/13 11:47:44;;;;;;;6.80;6.10;;;;;;;13.52;61.75;99939.06;6924855;28;20231;-78
2021/12/13 11:51:44;;;;;;;6.43;5.80;;;;;;;13.59;61.33;99938.06;6924452;28;20691;-79
2021/12/13 11:55:30;;;;;;;7.30;5.97;;;;;;;13.69;61.24;99933.13;6923392;28;20226;-80
2021/12/13 11:59:02;;;;;;;7.20;5.67;;;;;;;13.79;61.08;99932.78;6905964;28;20600;-79
2021/12/13 12:02:35;;;;;;;6.93;5.40;;;;;;;13.59;61.49;99915.56;6897569;28;20232;-79
2021/12/13 12:06:39;;;;;;;6.97;6.17;;;;;;;13.54;61.81;99931.56;6896843;28;20195;-78
2021/12/13 12:10:20;;;;;;;6.23;5.63;;;;;;;13.96;60.64;99926.00;6912714;28;20204;-81
2021/12/13 12:13:53;;;;;;;4.70;4.20;;;;;;;13.54;60.84;99929.69;6912712;28;20234;-78
2021/12/13 12:17:15;;;;;;;5.30;4.57;;;;;;;13.51;62.14;99923.84;6923403;28;20204;-78
2021/12/13 12:20:39;;;;;;;8.10;5.00;;;;;;;13.44;61.90;99917.50;6927638;28;20234;-79
2021/12/13 12:24:02;;;;;;;5.00;4.43;;;;;;;13.80;61.53;99910.91;6928059;28;20214;-79
2021/12/13 12:27:26;;;;;;;4.83;4.03;;;;;;;13.88;60.68;99926.19;6924758;28;20208;-79
2021/12/13 12:30:52;;;;;;;4.17;3.77;;;;;;;14.03;60.41;99913.31;6923132;28;20220;-80
2021/12/13 12:34:14;;;;;;;4.17;3.80;;;;;;;13.78;59.95;99923.81;6904188;28;20230;-80
2021/12/13 12:38:09;;;;;;;4.03;3.63;;;;;;;14.11;59.65;99914.00;6925840;28;20207;-80
2021/12/13 12:41:42;;;;;;;4.53;4.07;;;;;;;14.18;59.04;99919.47;6924102;28;20227;-80
2021/12/13 12:45:23;;;;;;;4.87;3.70;;;;;;;14.27;58.06;99910.97;6922650;28;20235;-79
2021/12/13 12:48:48;;;;;;;3.87;3.57;;;;;;;14.17;59.16;99915.91;6924886;28;20587;-80
2021/12/13 12:52:11;;;;;;;7.20;5.90;;;;;;;13.25;61.52;99910.91;6912429;28;20286;-80
2021/12/13 12:55:36;;;;;;;5.87;5.00;;;;;;;13.68;61.16;99892.69;6923908;28;20358;-80
2021/12/13 12:59:05;;;;;;;6.17;4.97;;;;;;;12.84;62.55;99909.00;6918488;28;20211;-79
2021/12/13 13:02:32;;;;;;;6.17;5.30;;;;;;;12.91;63.67;99893.66;6932926;28;20329;-80
2021/12/13 13:06:02;;;;;;;5.93;5.23;;;;;;;13.48;61.40;99887.13;6918351;28;20211;-79
2021/12/13 13:09:35;;;;;;;6.03;5.43;;;;;;;13.96;60.58;99898.91;6921690;28;20207;-79
2021/12/13 13:12:58;;;;;;;6.13;5.20;;;;;;;13.99;59.88;99893.09;6921568;28;20324;-79
2021/12/13 13:16:21;;;;;;;5.77;5.03;;;;;;;13.86;59.97;99877.56;6921824;28;20317;-80
2021/12/13 13:19:47;;;;;;;6.77;5.33;;;;;;;13.75;60.69;99888.97;6921301;28;20207;-79
2021/12/13 13:23:12;;;;;;;5.03;4.37;;;;;;;13.77;60.68;99877.94;6907055;28;20220;-81
2021/12/13 13:26:34;;;;;;;9.03;6.07;;;;;;;14.24;59.65;99888.84;6920518;28;20203;-78
2021/12/13 13:29:56;;;;;;;6.30;5.67;;;;;;;14.06;59.37;99892.09;6920965;28;20218;-79
2021/12/13 13:33:19;;;;;;;5.57;5.07;;;;;;;13.50;60.31;99885.06;6921692;28;20726;-79
2021/12/13 13:36:43;;;;;;;6.07;5.47;;;;;;;13.53;60.76;99886.53;6921211;28;20228;-78
2021/12/13 13:40:12;;;;;;;5.53;5.03;;;;;;;13.62;60.57;99883.47;6917819;28;20215;-79
2021/12/13 13:43:37;;;;;;;6.23;5.30;;;;;;;13.80;59.94;99855.88;6921128;28;20221;-78
2021/12/13 13:47:05;;;;;;;5.77;5.17;;;;;;;13.94;59.66;99892.84;6911133;28;20681;-79
2021/12/13 13:50:29;;;;;;;8.27;6.67;;;;;;;12.85;62.77;99886.31;6895136;28;20219;-80
2021/12/13 13:53:53;;;;;;;8.83;6.33;;;;;;;13.36;61.95;99893.28;6920616;28;20207;-79
2021/12/13 13:57:20;;;;;;;7.13;6.43;;;;;;;13.71;60.78;99890.41;6919743;28;20273;-78
2021/12/13 14:00:47;;;;;;;7.10;5.77;;;;;;;13.81;60.01;99895.47;6920518;28;20223;-79
2021/12/13 14:04:20;;;;;;;7.00;5.70;;;;;;;13.20;60.44;99861.06;6920469;28;20575;-79
2021/12/13 14:07:43;;;;;;;7.13;5.77;;;;;;;13.50;60.99;99886.91;6920065;28;20214;-79
2021/12/13 14:11:11;;;;;;;7.03;6.30;;;;;;;13.20;62.38;99896.25;6919789;28;20247;-78
2021/12/13 14:14:41;;;;;;;9.77;6.37;;;;;;;13.15;61.66;99874.38;6919657;28;20246;-78
2021/12/13 14:18:05;;;;;;;6.80;5.83;;;;;;;13.08;62.62;99898.66;6920467;28;20207;-77
2021/12/13 14:21:30;;;;;;;7.50;5.67;;;;;;;13.09;61.98;99896.81;6919783;28;20239;-78
2021/12/13 14:24:52;;;;;;;7.63;5.83;;;;;;;13.01;61.82;99886.94;6919753;28;20242;-77
2021/12/13 14:28:23;;;;;;;8.37;6.37;;;;;;;12.63;63.05;99912.53;6919881;28;20207;-77
2021/12/13 14:31:48;;;;;;;7.93;6.77;;;;;;;12.55;63.71;99911.81;6920551;28;20243;-78
2021/12/13 14:35:15;;;;;;;7.43;5.63;;;;;;;12.60;63.88;99912.06;6920006;28;20231;-77
2021/12/13 14:38:38;;;;;;;6.60;5.53;;;;;;;12.28;64.73;99902.53;6920475;28;20223;-76
2021/12/13 14:42:05;;;;;;;9.00;6.40;;;;;;;12.15;64.80;99915.09;6920359;28;20231;-77
2021/12/13 14:45:27;;;;;;;8.30;6.50;;;;;;;12.03;65.31;99913.88;6920115;28;20208;-81
2021/12/13 14:48:50;;;;;;;7.13;6.27;;;;;;;12.17;64.80;99896.78;6920154;28;20215;-77
2021/12/13 14:52:16;;;;;;;6.93;6.20;;;;;;;12.14;64.90;99922.34;6919123;28;20250;-76
2021/12/13 14:55:41;;;;;;;7.30;6.53;;;;;;;12.28;64.79;99896.31;6918588;28;20228;-79
2021/12/13 14:59:04;;;;;;;7.13;5.67;;;;;;;12.15;65.33;99915.09;6920229;28;20639;-77
2021/12/13 15:02:29;;;;;;;5.70;5.20;;;;;;;12.37;64.30;99914.94;6919837;28;20224;-80
2021/12/13 15:05:57;;;;;;;6.17;5.57;;;;;;;12.53;64.03;99922.00;6919736;28;20207;-78
2021/12/13 15:09:22;;;;;;;5.10;4.53;;;;;;;12.70;63.19;99908.03;6925472;28;20211;-78
2021/12/13 15:12:48;;;;;;;5.77;5.17;;;;;;;12.77;63.45;99921.63;6925539;28;20272;-78
2021/12/13 15:16:13;;;;;;;4.47;4.07;;;;;;;12.91;61.89;99918.88;6924672;28;20227;-78
2021/12/13 15:19:35;;;;;;;3.87;3.50;;;;;;;12.38;63.29;99913.91;6922057;28;20206;-78
2021/12/13 15:22:59;;;;;;;4.53;4.13;;;;;;;12.66;62.87;99904.03;6925399;28;20228;-78
2021/12/13 15:26:27;;;;;;;5.00;4.50;;;;;;;12.78;62.63;99918.75;6925149;28;20204;-78
2021/12/13 15:29:56;;;;;;;4.70;4.30;;;;;;;13.06;61.63;99918.84;6925498;28;20184;-79
2021/12/13 15:33:18;;;;;;;4.40;4.00;;;;;;;13.07;61.10;99934.91;6925116;28;20234;-78
2021/12/13 15:36:39;;;;;;;4.73;4.20;;;;;;;12.99;61.08;99931.50;6925471;28;20230;-78
2021/12/13 15:40:09;;;;;;;5.03;4.53;;;;;;;12.84;61.28;99882.78;6925738;28;20675;-79
2021/12/13 15:43:33;;;;;;;4.93;4.53;;;;;;;12.99;60.81;99909.84;6924801;28;20232;-77
2021/12/13 15:46:57;;;;;;;4.80;4.40;;;;;;;13.42;60.44;99931.28;6923712;28;20207;-77
2021/12/13 15:50:30;;;;;;;6.17;5.57;;;;;;;13.19;60.62;99929.78;6922843;28;20208;-77
2021/12/13 15:53:55;;;;;;;7.40;6.70;;;;;;;12.89;61.60;99922.81;6922851;28;20305;-77
2021/12/13 15:57:22;;;;;;;5.30;4.80;;;;;;;13.03;61.54;99921.94;6922494;28;20231;-77
2021/12/13 16:00:44;;;;;;;5.50;4.70;;;;;;;12.74;61.38;99925.56;6923779;28;20227;-79
2021/12/13 16:04:08;;;;;;;5.93;5.43;;;;;;;12.86;61.13;99924.03;6920558;28;20726;-80
2021/12/13 16:07:30;;;;;;;6.30;5.67;;;;;;;12.27;62.88;99925.22;6911375;28;20235;-79
2021/12/13 16:10:51;;;;;;;6.70;6.00;;;;;;;12.30;62.65;99940.22;6913709;28;20224;-78
2021/12/13 16:14:31;;;;;;;9.07;8.07;;;;;;;11.94;64.54;99937.47;6916233;28;20223;-78
2021/12/13 16:17:55;;;;;;;10.77;9.67;;;;;;;11.49;65.58;99926.75;6896228;28;20209;-78
2021/12/13 16:21:23;;;;;;;12.67;11.37;;;;;;;10.75;67.62;99909.69;6896616;28;20224;-78
2021/12/13 16:24:53;;;;;;;11.30;9.70;;;;;;;11.21;67.11;99936.47;6896342;28;20210;-78
2021/12/13 16:28:17;;;;;;;11.93;10.23;;;;;;;11.23;66.26;99907.41;6905912;28;20293;-79
2021/12/13 16:31:42;;;;;;;10.23;8.90;;;;;;;11.74;65.33;99906.59;6901907;28;20764;-80
2021/12/13 16:35:04;;;;;;;10.37;9.27;;;;;;;11.65;65.24;99921.22;6895295;28;20685;-80
2021/12/13 16:38:26;;;;;;;11.33;10.13;;;;;;;11.81;64.78;99914.81;6895316;28;20207;-79
2021/12/13 16:41:51;;;;;;;13.33;10.30;;;;;;;11.91;64.78;99912.66;6929139;28;20235;-77
2021/12/13 16:45:13;;;;;;;9.90;8.80;;;;;;;12.09;64.00;99923.94;6938313;28;20196;-78
2021/12/13 16:48:40;;;;;;;13.53;9.50;;;;;;;12.12;64.19;99926.25;6895345;28;20235;-79
2021/12/13 16:52:05;;;;;;;10.40;9.30;;;;;;;12.19;64.20;99933.44;6895004;28;20735;-79
2021/12/13 16:55:28;;;;;;;9.60;8.60;;;;;;;12.36;63.44;99936.75;6916020;28;20231;-77
2021/12/13 16:58:52;;;;;;;10.77;9.23;;;;;;;12.66;62.76;99947.34;6922460;28;20683;-80
2021/12/13 17:02:14;;;;;;;8.63;7.73;;;;;;;12.74;61.78;99941.81;6921750;28;20246;-79
2021/12/13 17:05:41;;;;;;;10.87;9.87;;;;;;;12.29;63.75;99952.91;6921232;28;20668;-79
2021/12/13 17:09:07;;;;;;;11.83;10.73;;;;;;;12.84;61.81;99928.81;6922701;28;20210;-78
2021/12/13 17:12:31;;;;;;;8.87;8.03;;;;;;;13.32;60.66;99948.88;6921586;28;20245;-78
2021/12/13 17:15:55;;;;;;;11.43;10.23;;;;;;;13.22;60.30;99953.78;6921151;28;20223;-78
2021/12/13 17:19:17;;;;;;;11.70;10.03;;;;;;;13.29;60.40;99954.69;6921086;28;20215;-78
2021/12/13 17:22:46;;;;;;;10.67;9.40;;;;;;;13.35;60.14;99941.22;6920877;28;20746;-78
2021/12/13 17:26:35;;;;;;;11.23;10.03;;;;;;;13.16;60.60;99944.56;6920640;28;20697;-78
2021/12/13 17:29:59;;;;;;;10.97;9.87;;;;;;;13.34;60.19;99953.06;6919893;28;20202;-80
2021/12/13 17:33:33;;;;;;;11.00;9.83;;;;;;;13.33;59.81;99953.28;6920134;28;20231;-80
2021/12/13 17:36:55;;;;;;;9.80;8.10;;;;;;;12.76;61.52;99938.91;6920385;28;20642;-80
2021/12/13 17:40:38;;;;;;;10.30;9.27;;;;;;;13.19;60.49;99956.88;6920665;28;20207;-78
2021/12/13 17:44:15;;;;;;;11.63;10.43;;;;;;;12.96;60.86;99948.09;6920346;28;20524;-80
2021/12/13 17:47:37;;;;;;;10.27;9.17;;;;;;;12.88;61.33;99948.19;6920701;28;20243;-79
2021/12/13 17:51:09;;;;;;;8.93;8.00;;;;;;;12.81;61.37;99958.94;6919829;28;20232;-79
2021/12/13 17:54:45;;;;;;;10.50;9.50;;;;;;;12.26;62.01;99947.88;6919141;28;20211;-79
2021/12/13 17:58:18;;;;;;;9.33;8.43;;;;;;;12.62;61.43;99954.16;6919450;28;20309;-78
2021/12/13 18:01:42;;;;;;;10.03;9.03;;;;;;;12.56;61.54;99951.38;6919322;28;20227;-80
2021/12/13 18:05:08;;;;;;;9.10;8.30;;;;;;;12.58;61.82;99943.91;6918245;28;20199;-78
2021/12/13 18:08:30;;;;;;;7.63;6.93;;;;;;;12.81;61.00;99952.72;6919072;28;20215;-77
2021/12/13 18:11:58;;;;;;;8.33;7.53;;;;;;;12.82;60.86;99949.81;6918772;28;20232;-78
2021/12/13 18:15:25;;;;;;;9.43;8.43;;;;;;;12.36;62.24;99953.00;6918311;28;20218;-78
2021/12/13 18:18:47;;;;;;;7.70;7.00;;;;;;;12.71;60.47;99957.59;6910894;28;20281;-79
2021/12/13 18:22:25;;;;;;;8.07;7.27;;;;;;;12.24;61.80;99966.16;6909810;28;20290;-79
2021/12/13 18:25:58;;;;;;;6.40;5.80;;;;;;;12.48;61.50;99962.28;6902103;28;20245;-78
2021/12/13 18:29:21;;;;;;;7.20;6.43;;;;;;;12.82;60.31;99957.94;6907632;28;20679;-78
2021/12/13 18:32:49;;;;;;;6.20;5.67;;;;;;;12.83;59.64;99956.91;6907663;28;20238;-80
2021/12/13 18:36:14;;;;;;;6.17;5.63;;;;;;;12.54;60.62;99956.97;6918826;28;20278;-78
2021/12/13 18:39:38;;;;;;;6.40;5.80;;;;;;;12.50;60.10;99933.19;6919561;28;20322;-79
2021/12/13 18:43:06;;;;;;;6.17;5.63;;;;;;;12.83;60.08;99945.22;6923792;28;20227;-78
2021/12/13 18:46:32;;;;;;;5.57;5.07;;;;;;;12.84;59.02;99941.47;6924140;28;20210;-77
2021/12/13 18:49:59;;;;;;;5.80;5.30;;;;;;;12.73;59.52;99939.28;6924375;28;20209;-80
2021/12/13 18:53:23;;;;;;;6.97;6.27;;;;;;;12.53;59.63;99933.66;6923891;28;20598;-77
2021/12/13 18:56:45;;;;;;;6.50;5.90;;;;;;;12.55;59.21;99946.97;6922027;28;20262;-78
2021/12/13 19:00:13;;;;;;;6.83;6.23;;;;;;;12.59;59.64;99959.09;6923500;28;20268;-79
2021/12/13 19:03:39;;;;;;;6.87;6.17;;;;;;;12.11;60.95;99949.72;6912191;28;20214;-78
2021/12/13 19:07:28;;;;;;;6.47;5.87;;;;;;;12.29;60.21;99968.28;6905613;28;20316;-78
2021/12/13 19:10:53;;;;;;;6.70;5.73;;;;;;;12.15;60.24;99939.41;6923621;28;20233;-77
2021/12/13 19:14:18;;;;;;;6.87;6.17;;;;;;;12.41;60.53;99959.53;6923749;28;20198;-78
2021/12/13 19:17:46;;;;;;;8.60;7.70;;;;;;;12.40;60.37;99944.31;6924343;28;20231;-78
2021/12/13 19:21:13;;;;;;;8.07;7.27;;;;;;;12.60;59.42;99915.63;6923889;28;20234;-80
2021/12/13 19:24:46;;;;;;;8.33;7.30;;;;;;;12.79;59.16;99954.75;6923431;28;20535;-77
2021/12/13 19:28:14;;;;;;;8.50;6.90;;;;;;;12.99;58.20;99951.25;6924203;28;20192;-77
2021/12/13 19:31:42;;;;;;;7.93;7.13;;;;;;;12.77;58.49;99941.44;6924252;28;20261;-80
2021/12/13 19:35:08;;;;;;;8.33;7.53;;;;;;;12.94;58.63;99966.38;6923796;28;20214;-81
2021/12/13 19:38:32;;;;;;;9.07;7.13;;;;;;;13.14;57.50;99965.59;6924076;28;20212;-79
2021/12/13 19:41:58;;;;;;;8.20;7.10;;;;;;;13.14;57.36;99987.25;6923608;28;20230;-80
2021/12/13 19:45:28;;;;;;;8.43;7.33;;;;;;;12.95;58.20;99977.06;6922660;28;20274;-79
2021/12/13 19:48:54;;;;;;;9.07;7.33;;;;;;;12.78;58.33;99983.69;6923478;28;20322;-79
2021/12/13 19:52:18;;;;;;;9.60;7.97;;;;;;;12.81;58.58;99972.47;6922721;28;20241;-79
2021/12/13 19:55:47;;;;;;;7.83;7.03;;;;;;;13.18;56.97;99980.44;6922475;28;20233;-80
2021/12/13 19:59:17;;;;;;;8.57;7.67;;;;;;;12.81;57.22;99931.06;6922939;28;20274;-79
2021/12/13 20:02:44;;;;;;;8.43;7.57;;;;;;;13.01;57.14;99951.94;6923408;28;20227;-80
2021/12/13 20:06:09;;;;;;;8.43;7.60;;;;;;;12.74;58.09;99947.22;6926731;28;20205;-81
2021/12/13 20:09:37;;;;;;;10.83;8.70;;;;;;;12.52;58.53;99931.97;6936084;28;20215;-81
2021/12/13 20:13:03;;;;;;;8.87;7.97;;;;;;;12.45;58.95;99931.06;6934177;28;20222;-79
2021/12/13 20:16:32;;;;;;;8.23;6.97;;;;;;;12.35;59.64;99948.63;6932469;28;20233;-80
2021/12/13 20:19:59;;;;;;;8.37;7.47;;;;;;;12.15;59.15;99905.09;6924380;28;20210;-79
2021/12/13 20:23:25;;;;;;;7.17;6.47;;;;;;;12.31;59.00;99929.22;6922607;28;20510;-79
2021/12/13 20:26:51;;;;;;;6.90;6.00;;;;;;;12.57;58.78;99953.06;6921860;28;20214;-80
2021/12/13 20:30:18;;;;;;;8.00;6.57;;;;;;;12.84;57.87;99950.47;6922396;28;20195;-79
2021/12/13 20:33:45;;;;;;;7.77;6.53;;;;;;;12.72;58.08;99948.44;6922472;28;20188;-79
2021/12/13 20:37:13;;;;;;;6.90;6.10;;;;;;;12.85;57.72;99943.16;6921908;28;20321;-79